Time;durP1;ratioP1;P1;durP2;ratioP2;P2;SDS_P1;SDS_P2;PMS_P1;PMS_P2;Temp;Humidity;BMP_temperature;BMP_pressure;BME280_temperature;BME280_humidity;BME280_pressure;Samples;Min_cycle;Max_cycle;Signal;HPM_P1;HPM_P2
2021/10/19 00:01:23;;;;;;;0.65;0.60;;;;;;;8.51;61.87;97316.53;5073597;28;20411;-66
2021/10/19 00:03:49;;;;;;;0.20;0.20;;;;;;;8.51;61.87;97319.25;5073939;28;20048;-66
2021/10/19 00:06:15;;;;;;;5.75;0.95;;;;;;;8.50;61.96;97307.50;5073908;28;20041;-66
2021/10/19 00:08:41;;;;;;;0.40;0.40;;;;;;;8.49;61.87;97310.50;5073986;28;20040;-64
2021/10/19 00:11:07;;;;;;;0.68;0.45;;;;;;;8.48;61.62;97308.84;5073864;28;20040;-66
2021/10/19 00:13:34;;;;;;;0.30;0.30;;;;;;;8.44;61.79;97299.50;5074681;28;20380;-65
2021/10/19 00:15:59;;;;;;;0.85;0.85;;;;;;;8.44;61.78;97291.28;5055965;28;20523;-67
2021/10/19 00:18:25;;;;;;;0.55;0.55;;;;;;;8.45;61.40;97291.06;5073682;28;20082;-66
2021/10/19 00:20:51;;;;;;;0.30;0.30;;;;;;;8.46;61.31;97291.88;5073607;28;20548;-66
2021/10/19 00:23:19;;;;;;;0.52;0.52;;;;;;;8.46;61.11;97283.66;5073514;28;20048;-64
2021/10/19 00:25:45;;;;;;;0.30;0.30;;;;;;;8.49;60.89;97283.13;5073452;28;20048;-64
2021/10/19 00:28:11;;;;;;;0.20;0.20;;;;;;;8.51;60.81;97286.44;5073458;28;20043;-64
2021/10/19 00:30:36;;;;;;;0.30;0.30;;;;;;;8.53;60.80;97295.22;5072561;28;20051;-64
2021/10/19 00:33:02;;;;;;;0.30;0.30;;;;;;;8.55;60.73;97296.63;5073126;28;20044;-64
2021/10/19 00:35:28;;;;;;;0.20;0.20;;;;;;;8.57;60.62;97291.72;5073015;28;20040;-65
2021/10/19 00:37:54;;;;;;;0.40;0.40;;;;;;;8.62;60.38;97298.31;5072976;28;20040;-64
2021/10/19 00:40:20;;;;;;;0.55;0.45;;;;;;;8.61;60.27;97285.72;5073323;28;20044;-65
2021/10/19 00:42:46;;;;;;;0.28;0.28;;;;;;;8.59;60.32;97285.97;5073806;28;20044;-63
2021/10/19 00:45:12;;;;;;;2.20;0.73;;;;;;;8.59;60.05;97275.84;5073205;28;20037;-65
2021/10/19 00:47:47;;;;;;;0.30;0.30;;;;;;;8.61;60.08;97280.25;5073254;28;20487;-64
2021/10/19 00:50:14;;;;;;;0.20;0.20;;;;;;;8.62;60.00;97257.28;5073011;28;20095;-65
2021/10/19 00:52:40;;;;;;;0.38;0.38;;;;;;;8.63;59.82;97261.63;5072764;28;20068;-66
2021/10/19 00:55:08;;;;;;;0.55;0.52;;;;;;;8.65;59.92;97260.31;5072945;28;20074;-65
2021/10/19 00:57:34;;;;;;;0.38;0.38;;;;;;;8.66;59.66;97261.97;5073095;28;20044;-65
2021/10/19 00:59:59;;;;;;;1.35;0.60;;;;;;;8.69;59.68;97260.63;5072343;28;20052;-67
2021/10/19 01:02:25;;;;;;;0.30;0.30;;;;;;;8.72;59.48;97260.09;5072648;28;20051;-66
2021/10/19 01:04:51;;;;;;;0.28;0.28;;;;;;;8.74;59.16;97266.94;5072499;28;20407;-66
2021/10/19 01:07:17;;;;;;;0.30;0.30;;;;;;;8.78;59.24;97261.78;5072572;28;20040;-65
2021/10/19 01:09:42;;;;;;;0.38;0.38;;;;;;;8.79;59.07;97255.22;5072840;28;20043;-66
2021/10/19 01:12:10;;;;;;;2.38;0.30;;;;;;;8.79;59.07;97251.66;5054508;28;20098;-65
2021/10/19 01:14:36;;;;;;;0.20;0.20;;;;;;;8.77;58.97;97254.66;5072522;28;20047;-65
2021/10/19 01:17:02;;;;;;;0.20;0.20;;;;;;;8.77;58.75;97255.50;5072381;28;20101;-65
2021/10/19 01:19:29;;;;;;;0.47;0.47;;;;;;;8.77;58.97;97255.50;5072028;28;20071;-65
2021/10/19 01:21:57;;;;;;;0.47;0.47;;;;;;;8.80;58.79;97237.72;5072413;28;20041;-65
2021/10/19 01:24:24;;;;;;;0.55;0.55;;;;;;;8.80;58.55;97239.63;5072464;28;20072;-64
2021/10/19 01:26:50;;;;;;;4.85;0.68;;;;;;;8.83;58.62;97242.66;5072399;28;20040;-64
2021/10/19 01:29:16;;;;;;;0.22;0.22;;;;;;;8.85;58.48;97236.91;5072404;28;20411;-65
2021/10/19 01:31:50;;;;;;;0.45;0.45;;;;;;;8.88;58.26;97230.94;5071640;28;20040;-66
2021/10/19 01:34:16;;;;;;;3.13;0.85;;;;;;;8.88;58.16;97229.03;5072645;28;20075;-66
2021/10/19 01:36:43;;;;;;;1.20;0.30;;;;;;;8.92;57.98;97232.03;5072181;28;20036;-66
2021/10/19 01:39:09;;;;;;;0.20;0.20;;;;;;;8.94;58.05;97229.88;5072386;28;20036;-66
2021/10/19 01:41:35;;;;;;;3.10;0.50;;;;;;;8.96;57.73;97221.41;5072296;28;20047;-64
2021/10/19 01:44:01;;;;;;;0.20;0.20;;;;;;;8.99;57.84;97237.31;5071988;28;20036;-64
2021/10/19 01:46:27;;;;;;;0.40;0.40;;;;;;;9.03;57.84;97231.03;5071867;28;20093;-65
2021/10/19 01:48:53;;;;;;;0.65;0.50;;;;;;;9.07;57.31;97223.13;5072297;28;20063;-66
2021/10/19 01:51:19;;;;;;;0.52;0.40;;;;;;;9.11;57.42;97222.34;5071996;28;20105;-65
2021/10/19 01:53:46;;;;;;;0.20;0.20;;;;;;;9.14;57.17;97217.41;5072221;28;20056;-65
2021/10/19 01:56:11;;;;;;;1.33;0.28;;;;;;;9.17;57.18;97222.34;5072055;28;20040;-65
2021/10/19 01:58:37;;;;;;;0.32;0.32;;;;;;;9.20;57.05;97203.50;5071124;28;20095;-65
2021/10/19 02:01:04;;;;;;;0.30;0.30;;;;;;;9.23;57.11;97194.75;5061903;28;20057;-67
2021/10/19 02:03:29;;;;;;;0.40;0.40;;;;;;;9.25;56.91;97187.06;5051136;28;20045;-66
2021/10/19 02:05:55;;;;;;;0.40;0.40;;;;;;;9.28;57.01;97189.28;5055964;28;20561;-67
2021/10/19 02:08:21;;;;;;;0.32;0.32;;;;;;;9.32;56.83;97186.84;5055980;28;20071;-66
2021/10/19 02:10:47;;;;;;;0.32;0.32;;;;;;;9.34;56.90;97194.78;5055916;28;20044;-66
2021/10/19 02:13:13;;;;;;;0.40;0.40;;;;;;;9.34;57.27;97201.09;5055489;28;20500;-66
2021/10/19 02:15:40;;;;;;;0.40;0.40;;;;;;;9.34;56.94;97203.00;5055987;28;20052;-64
2021/10/19 02:18:07;;;;;;;1.55;1.15;;;;;;;9.35;56.89;97212.84;5056057;28;20500;-64
2021/10/19 02:20:34;;;;;;;0.30;0.30;;;;;;;9.34;57.02;97211.22;5055795;28;20065;-66
2021/10/19 02:23:00;;;;;;;0.60;0.60;;;;;;;9.33;56.77;97218.59;5055626;28;20049;-67
2021/10/19 02:25:26;;;;;;;0.20;0.20;;;;;;;9.34;56.85;97213.97;5056097;28;20045;-66
2021/10/19 02:27:53;;;;;;;0.20;0.20;;;;;;;9.33;57.04;97193.94;5055500;28;20045;-66
2021/10/19 02:30:19;;;;;;;2.30;0.55;;;;;;;9.35;57.00;97193.69;5054500;28;20131;-66
2021/10/19 02:32:45;;;;;;;0.20;0.20;;;;;;;9.35;56.92;97191.78;5055806;28;20045;-66
2021/10/19 02:35:14;;;;;;;0.20;0.20;;;;;;;9.37;56.86;97175.91;5056168;28;20055;-67
2021/10/19 02:37:41;;;;;;;0.30;0.30;;;;;;;9.41;57.16;97168.00;5055441;28;20044;-66
2021/10/19 02:40:09;;;;;;;0.75;0.35;;;;;;;9.40;56.99;97175.34;5054988;28;20041;-66
2021/10/19 02:42:35;;;;;;;0.45;0.45;;;;;;;9.39;56.95;97168.25;5055272;28;20079;-66
2021/10/19 02:45:02;;;;;;;0.30;0.30;;;;;;;9.38;57.17;97166.59;5055604;28;20446;-67
2021/10/19 02:47:28;;;;;;;0.20;0.20;;;;;;;9.37;57.20;97151.25;5055145;28;20414;-67
2021/10/19 02:49:54;;;;;;;0.25;0.25;;;;;;;9.41;57.38;97162.50;5055129;28;20076;-67
2021/10/19 02:52:20;;;;;;;3.83;0.52;;;;;;;9.42;57.29;97167.72;5055348;28;20071;-66
2021/10/19 02:54:45;;;;;;;0.80;0.30;;;;;;;9.44;57.18;97164.72;5055488;28;20041;-68
2021/10/19 02:57:11;;;;;;;0.80;0.80;;;;;;;9.47;57.28;97170.47;5054776;28;20041;-68
2021/10/19 02:59:37;;;;;;;0.30;0.30;;;;;;;9.51;57.10;97168.03;5054559;28;20049;-66
2021/10/19 03:02:03;;;;;;;0.30;0.30;;;;;;;9.54;57.33;97167.50;5062074;28;20041;-66
2021/10/19 03:04:29;;;;;;;0.20;0.20;;;;;;;9.58;57.07;97171.31;5064590;28;20052;-67
2021/10/19 03:06:55;;;;;;;0.30;0.30;;;;;;;9.63;57.30;97170.53;5063060;28;20041;-69
2021/10/19 03:09:20;;;;;;;0.28;0.28;;;;;;;9.64;57.04;97174.91;5063192;28;20060;-66
2021/10/19 03:11:46;;;;;;;0.20;0.20;;;;;;;9.67;57.03;97176.28;5064331;28;20115;-67
2021/10/19 03:14:12;;;;;;;0.55;0.40;;;;;;;9.68;56.92;97170.53;5063157;28;20033;-67
2021/10/19 03:16:38;;;;;;;0.55;0.55;;;;;;;9.72;57.06;97170.84;5063109;28;20036;-67
2021/10/19 03:19:04;;;;;;;1.15;1.00;;;;;;;9.73;56.82;97175.19;5064192;28;20053;-66
2021/10/19 03:21:30;;;;;;;0.38;0.38;;;;;;;9.74;56.79;97172.19;5062236;28;20057;-67
2021/10/19 03:23:56;;;;;;;0.20;0.20;;;;;;;9.76;57.15;97164.53;5063305;28;20036;-68
2021/10/19 03:26:22;;;;;;;0.30;0.30;;;;;;;9.77;57.12;97170.84;5063742;28;20041;-68
2021/10/19 03:28:48;;;;;;;0.22;0.22;;;;;;;9.78;57.02;97173.31;5062120;28;20128;-67
2021/10/19 03:31:14;;;;;;;0.30;0.30;;;;;;;9.78;56.73;97173.31;5063193;28;20043;-66
2021/10/19 03:33:41;;;;;;;0.40;0.40;;;;;;;9.79;56.86;97174.97;5045907;28;20033;-67
2021/10/19 03:36:07;;;;;;;0.20;0.20;;;;;;;9.79;56.62;97163.16;5064793;28;20491;-66
2021/10/19 03:38:34;;;;;;;1.30;0.95;;;;;;;9.78;56.93;97162.34;5063336;28;20064;-69
2021/10/19 03:41:00;;;;;;;0.10;0.10;;;;;;;9.78;56.62;97156.03;5062845;28;20754;-69
2021/10/19 03:43:26;;;;;;;0.40;0.40;;;;;;;9.82;56.81;97151.69;5064693;28;20037;-66
2021/10/19 03:45:52;;;;;;;0.35;0.35;;;;;;;9.82;56.67;97149.75;5064304;28;20048;-67
2021/10/19 03:48:18;;;;;;;0.75;0.75;;;;;;;9.84;56.63;97148.66;5064915;28;20106;-66
2021/10/19 03:50:43;;;;;;;0.25;0.25;;;;;;;9.82;56.30;97163.44;5065586;28;20044;-66
2021/10/19 03:53:10;;;;;;;0.20;0.20;;;;;;;9.86;56.43;97157.44;5063400;28;20052;-68
2021/10/19 03:55:36;;;;;;;0.20;0.20;;;;;;;9.87;56.32;97162.63;5063922;28;20090;-65
2021/10/19 03:58:02;;;;;;;3.30;0.32;;;;;;;9.87;56.41;97170.03;5064420;28;20671;-65
2021/10/19 04:00:27;;;;;;;0.63;0.63;;;;;;;9.87;56.46;97161.81;5060881;28;20067;-64
2021/10/19 04:02:53;;;;;;;0.20;0.20;;;;;;;9.89;56.20;97162.38;5062817;28;20037;-65
2021/10/19 04:05:19;;;;;;;0.35;0.35;;;;;;;9.92;56.02;97164.56;5062084;28;20047;-64
2021/10/19 04:07:46;;;;;;;0.50;0.50;;;;;;;9.96;56.19;97166.47;5063148;28;20037;-65
2021/10/19 04:10:12;;;;;;;0.20;0.20;;;;;;;9.96;56.11;97165.66;5061896;28;20393;-64
2021/10/19 04:12:38;;;;;;;0.20;0.20;;;;;;;9.91;55.99;97165.66;5061751;28;20072;-64
2021/10/19 04:15:05;;;;;;;0.20;0.20;;;;;;;9.88;56.33;97168.94;5053770;28;20524;-66
2021/10/19 04:17:30;;;;;;;0.98;0.65;;;;;;;9.81;56.25;97177.44;5053936;28;20041;-65
2021/10/19 04:19:56;;;;;;;1.75;1.20;;;;;;;9.78;56.17;97170.56;5053588;28;20060;-63
2021/10/19 04:22:22;;;;;;;0.30;0.30;;;;;;;9.76;56.17;97158.22;5053698;28;20041;-66
2021/10/19 04:24:51;;;;;;;0.45;0.45;;;;;;;9.73;56.32;97154.13;5053167;28;20088;-66
2021/10/19 04:27:17;;;;;;;0.20;0.20;;;;;;;9.74;56.41;97153.00;5050522;28;20088;-66
2021/10/19 04:29:44;;;;;;;0.20;0.20;;;;;;;9.75;56.27;97151.09;5050654;28;20501;-65
2021/10/19 04:32:09;;;;;;;0.20;0.20;;;;;;;9.74;56.22;97166.72;5051609;28;20120;-66
2021/10/19 04:34:35;;;;;;;0.20;0.20;;;;;;;9.75;56.44;97168.38;5052389;28;20172;-65
2021/10/19 04:37:01;;;;;;;0.40;0.40;;;;;;;9.78;56.44;97167.00;5052030;28;20095;-64
2021/10/19 04:39:28;;;;;;;0.10;0.10;;;;;;;9.79;56.12;97165.91;5052319;28;20109;-66
2021/10/19 04:41:54;;;;;;;0.22;0.20;;;;;;;9.75;56.29;97162.88;5053155;28;20051;-65
2021/10/19 04:44:20;;;;;;;0.22;0.22;;;;;;;9.75;56.27;97167.56;5053102;28;20041;-65
2021/10/19 04:46:46;;;;;;;0.20;0.20;;;;;;;9.76;56.49;97153.56;5053258;28;20403;-66
2021/10/19 04:49:12;;;;;;;0.20;0.20;;;;;;;9.78;56.47;97151.38;5053247;28;20041;-66
2021/10/19 04:51:38;;;;;;;0.20;0.20;;;;;;;9.81;56.24;97164.53;5052743;28;20051;-66
2021/10/19 04:54:04;;;;;;;0.20;0.20;;;;;;;9.82;56.15;97155.22;5052852;28;20128;-65
2021/10/19 04:56:30;;;;;;;3.10;0.50;;;;;;;9.83;56.22;97156.03;5052791;28;20041;-65
2021/10/19 04:58:56;;;;;;;0.40;0.40;;;;;;;9.82;56.56;97159.91;5053180;28;20119;-67
2021/10/19 05:01:21;;;;;;;0.13;0.13;;;;;;;9.76;56.72;97160.97;5052487;28;20051;-68
2021/10/19 05:03:47;;;;;;;0.20;0.20;;;;;;;9.68;56.85;97156.84;5052602;28;20135;-66
2021/10/19 05:06:14;;;;;;;0.22;0.22;;;;;;;9.57;57.20;97144.19;5034605;28;20087;-67
2021/10/19 05:08:43;;;;;;;0.20;0.20;;;;;;;9.54;57.26;97156.53;5052497;28;20053;-65
2021/10/19 05:11:08;;;;;;;0.40;0.40;;;;;;;9.61;57.22;97153.53;5052916;28;20049;-66
2021/10/19 05:13:34;;;;;;;0.30;0.30;;;;;;;9.73;56.80;97145.06;5053064;28;20128;-68
2021/10/19 05:16:00;;;;;;;0.43;0.30;;;;;;;9.78;56.82;97147.81;5052683;28;20594;-66
2021/10/19 05:18:26;;;;;;;0.47;0.43;;;;;;;9.80;56.80;97142.88;5052840;28;20040;-66
2021/10/19 05:20:51;;;;;;;0.30;0.30;;;;;;;9.74;56.88;97141.22;5052184;28;20099;-65
2021/10/19 05:23:17;;;;;;;0.20;0.20;;;;;;;9.65;57.04;97143.66;5052814;28;20053;-66
2021/10/19 05:25:43;;;;;;;0.40;0.40;;;;;;;9.56;57.21;97139.81;5052274;28;20396;-66
2021/10/19 05:28:09;;;;;;;0.20;0.20;;;;;;;9.50;57.59;97140.91;5052428;28;20539;-66
2021/10/19 05:30:35;;;;;;;0.20;0.20;;;;;;;9.45;57.66;97131.56;5051897;28;20048;-65
2021/10/19 05:33:03;;;;;;;0.20;0.20;;;;;;;9.48;57.49;97130.19;5052212;28;20044;-67
2021/10/19 05:35:30;;;;;;;0.20;0.20;;;;;;;9.58;57.53;97126.66;5052411;28;20407;-65
2021/10/19 05:37:56;;;;;;;0.25;0.25;;;;;;;9.71;57.03;97133.56;5052063;28;20041;-67
2021/10/19 05:40:23;;;;;;;0.20;0.20;;;;;;;9.85;56.77;97118.25;5052083;28;20044;-66
2021/10/19 05:42:49;;;;;;;1.13;0.90;;;;;;;9.92;56.62;97134.41;5052165;28;20048;-68
2021/10/19 05:45:15;;;;;;;0.50;0.28;;;;;;;9.96;56.73;97125.34;5052278;28;20053;-65
2021/10/19 05:47:42;;;;;;;0.13;0.13;;;;;;;10.01;56.58;97116.31;5052173;28;20044;-67
2021/10/19 05:50:09;;;;;;;0.20;0.20;;;;;;;9.89;57.09;97116.56;5052122;28;20037;-65
2021/10/19 05:52:35;;;;;;;0.22;0.22;;;;;;;9.76;57.34;97115.19;5052513;28;20120;-65
2021/10/19 05:55:01;;;;;;;0.35;0.35;;;;;;;9.67;57.53;97111.31;5052178;28;20054;-65
2021/10/19 05:57:27;;;;;;;0.20;0.20;;;;;;;9.62;57.66;97119.56;5052165;28;20045;-66
2021/10/19 05:59:52;;;;;;;0.20;0.20;;;;;;;9.65;57.76;97108.03;5051642;28;20496;-65
2021/10/19 06:02:18;;;;;;;0.30;0.30;;;;;;;9.74;57.30;97102.84;5033881;28;20037;-66
2021/10/19 06:04:44;;;;;;;0.70;0.40;;;;;;;9.91;57.10;97099.84;5051851;28;20049;-66
2021/10/19 06:07:10;;;;;;;0.30;0.30;;;;;;;10.13;56.41;97097.69;5034033;28;20049;-66
2021/10/19 06:09:36;;;;;;;0.20;0.20;;;;;;;10.36;55.83;97105.66;5051849;28;20041;-67
2021/10/19 06:12:02;;;;;;;0.35;0.35;;;;;;;10.54;55.59;97096.03;5051749;28;20056;-66
2021/10/19 06:14:28;;;;;;;0.38;0.38;;;;;;;10.58;55.42;97083.41;5052103;28;20037;-66
2021/10/19 06:16:54;;;;;;;0.30;0.30;;;;;;;10.51;55.86;97103.72;5051958;28;20099;-66
2021/10/19 06:19:20;;;;;;;0.20;0.20;;;;;;;10.44;55.90;97096.91;5051743;28;20045;-67
2021/10/19 06:21:46;;;;;;;0.70;0.70;;;;;;;10.38;56.51;97095.22;5051703;28;20053;-66
2021/10/19 06:24:12;;;;;;;0.45;0.45;;;;;;;10.31;56.31;97106.47;5051727;28;20045;-67
2021/10/19 06:26:38;;;;;;;0.20;0.20;;;;;;;10.23;56.52;97091.38;5052067;28;20041;-65
2021/10/19 06:29:07;;;;;;;0.30;0.30;;;;;;;10.22;56.68;97105.34;5051641;28;20049;-66
2021/10/19 06:31:33;;;;;;;0.25;0.25;;;;;;;10.28;56.42;97101.53;5033175;28;20043;-66
2021/10/19 06:34:00;;;;;;;0.22;0.22;;;;;;;10.33;56.55;97107.88;5051835;28;20037;-66
2021/10/19 06:36:26;;;;;;;0.90;0.40;;;;;;;10.37;56.22;97110.88;5051824;28;20523;-65
2021/10/19 06:38:52;;;;;;;0.20;0.20;;;;;;;10.33;56.43;97112.50;5051754;28;20522;-65
2021/10/19 06:41:18;;;;;;;0.25;0.20;;;;;;;10.23;56.72;97107.84;5051453;28;20041;-66
2021/10/19 06:43:44;;;;;;;0.32;0.32;;;;;;;10.13;56.97;97108.66;5051938;28;20084;-66
2021/10/19 06:46:10;;;;;;;0.35;0.35;;;;;;;10.17;56.91;97103.44;5051235;28;20124;-67
2021/10/19 06:48:36;;;;;;;0.20;0.20;;;;;;;10.26;56.49;97107.28;5051452;28;20127;-66
2021/10/19 06:51:03;;;;;;;0.25;0.25;;;;;;;10.25;56.47;97116.63;5053595;28;20037;-65
2021/10/19 06:53:29;;;;;;;0.30;0.30;;;;;;;10.16;56.76;97119.06;5055485;28;20056;-66
2021/10/19 06:55:54;;;;;;;0.38;0.38;;;;;;;10.09;57.08;97114.97;5055606;28;20178;-66
2021/10/19 06:58:20;;;;;;;0.32;0.32;;;;;;;10.12;57.01;97119.91;5054877;28;20198;-66
2021/10/19 07:00:46;;;;;;;0.55;0.55;;;;;;;10.11;56.73;97105.34;5054315;28;20055;-66
2021/10/19 07:03:11;;;;;;;0.30;0.30;;;;;;;10.07;56.94;97115.25;5055391;28;20045;-66
2021/10/19 07:05:37;;;;;;;0.20;0.20;;;;;;;9.97;56.96;97117.97;5055054;28;20041;-66
2021/10/19 07:08:05;;;;;;;0.20;0.20;;;;;;;9.91;57.44;97121.78;5054884;28;20040;-65
2021/10/19 07:10:31;;;;;;;0.32;0.32;;;;;;;9.86;57.50;97113.56;5055148;28;20039;-65
2021/10/19 07:12:57;;;;;;;0.28;0.28;;;;;;;9.81;57.65;97106.97;5037147;28;20063;-67
2021/10/19 07:15:23;;;;;;;0.20;0.20;;;;;;;9.76;57.40;97112.47;5054819;28;20527;-68
2021/10/19 07:17:48;;;;;;;0.20;0.20;;;;;;;9.69;57.76;97106.41;5054559;28;20492;-66
2021/10/19 07:20:14;;;;;;;0.50;0.50;;;;;;;9.69;57.72;97103.69;5054543;28;20057;-65
2021/10/19 07:22:41;;;;;;;0.20;0.20;;;;;;;9.71;57.49;97104.22;5036587;28;20077;-67
2021/10/19 07:25:08;;;;;;;0.43;0.43;;;;;;;9.76;57.39;97096.03;5054571;28;20041;-67
2021/10/19 07:27:33;;;;;;;0.38;0.38;;;;;;;9.77;56.99;97094.09;5054419;28;20116;-66
2021/10/19 07:30:00;;;;;;;0.28;0.28;;;;;;;9.77;57.43;97089.41;5054147;28;20128;-68
2021/10/19 07:32:26;;;;;;;1.98;1.88;;;;;;;9.80;57.16;97088.06;5054735;28;20041;-65
2021/10/19 07:34:53;;;;;;;0.40;0.40;;;;;;;9.83;57.24;97071.06;5054822;28;20044;-66
2021/10/19 07:37:19;;;;;;;0.20;0.20;;;;;;;9.82;57.30;97092.19;5055319;28;20041;-68
2021/10/19 07:39:45;;;;;;;0.20;0.20;;;;;;;9.81;56.97;97096.00;5054928;28;20123;-65
2021/10/19 07:42:12;;;;;;;0.50;0.50;;;;;;;9.76;57.24;97092.44;5054352;28;20098;-66
2021/10/19 07:44:38;;;;;;;0.25;0.25;;;;;;;9.78;57.08;97096.56;5054140;28;20080;-67
2021/10/19 07:47:04;;;;;;;0.30;0.30;;;;;;;9.80;57.06;97077.09;5053720;28;20041;-67
2021/10/19 07:49:30;;;;;;;0.65;0.65;;;;;;;9.80;56.75;97102.59;5052138;28;20041;-68
2021/10/19 07:51:56;;;;;;;0.40;0.40;;;;;;;9.78;57.22;97093.81;5054326;28;20486;-65
2021/10/19 07:54:21;;;;;;;0.10;0.10;;;;;;;9.79;57.11;97086.41;5052959;28;20048;-67
2021/10/19 07:56:47;;;;;;;0.20;0.20;;;;;;;9.78;57.01;97090.25;5053011;28;20380;-66
2021/10/19 07:59:13;;;;;;;0.20;0.20;;;;;;;9.77;56.79;97096.81;5054110;28;20040;-66
2021/10/19 08:01:41;;;;;;;0.25;0.25;;;;;;;9.74;57.12;97103.66;5052241;28;20056;-71
2021/10/19 08:04:08;;;;;;;0.20;0.20;;;;;;;9.73;57.03;97109.41;5053943;28;20045;-68
2021/10/19 08:06:34;;;;;;;0.32;0.30;;;;;;;9.71;57.20;97101.47;5054099;28;20045;-66
2021/10/19 08:09:02;;;;;;;0.43;0.43;;;;;;;9.71;57.33;97101.47;5053618;28;20044;-68
2021/10/19 08:11:28;;;;;;;0.20;0.20;;;;;;;9.75;57.11;97096.28;5053556;28;20033;-67
2021/10/19 08:13:56;;;;;;;0.85;0.85;;;;;;;9.72;57.35;97091.34;5053477;28;20148;-68
2021/10/19 08:16:22;;;;;;;0.35;0.35;;;;;;;9.61;57.52;97098.72;5053508;28;20045;-67
2021/10/19 08:18:52;;;;;;;0.30;0.30;;;;;;;9.47;57.59;97107.44;5054184;28;20127;-67
2021/10/19 08:21:18;;;;;;;0.35;0.35;;;;;;;9.34;58.14;97110.69;5053524;28;20072;-66
2021/10/19 08:23:44;;;;;;;0.55;0.55;;;;;;;9.27;57.99;97097.25;5035320;28;20036;-66
2021/10/19 08:26:09;;;;;;;2.53;0.75;;;;;;;9.25;58.10;97104.09;5053546;28;20043;-68
2021/10/19 08:28:39;;;;;;;0.30;0.30;;;;;;;9.24;58.11;97088.75;5053392;28;20052;-67
2021/10/19 08:31:07;;;;;;;0.30;0.30;;;;;;;9.25;58.09;97110.38;5052749;28;20124;-67
2021/10/19 08:33:33;;;;;;;0.45;0.45;;;;;;;9.25;58.17;97113.13;5053487;28;20095;-66
2021/10/19 08:35:59;;;;;;;0.20;0.20;;;;;;;9.25;57.96;97095.88;5053555;28;20416;-66
2021/10/19 08:38:24;;;;;;;0.13;0.13;;;;;;;9.24;57.75;97102.44;5053197;28;20045;-67
2021/10/19 08:40:51;;;;;;;0.32;0.32;;;;;;;9.24;58.10;97110.66;5052857;28;20040;-66
2021/10/19 08:43:19;;;;;;;0.60;0.60;;;;;;;9.24;57.84;97121.63;5053526;28;20120;-65
2021/10/19 08:45:46;;;;;;;0.40;0.40;;;;;;;9.23;57.81;97109.84;5053099;28;20048;-68
2021/10/19 08:48:12;;;;;;;0.30;0.30;;;;;;;9.24;57.61;97119.69;5035298;28;20048;-66
2021/10/19 08:50:38;;;;;;;0.32;0.32;;;;;;;9.29;57.75;97122.47;5053089;28;20037;-65
2021/10/19 08:53:03;;;;;;;0.20;0.20;;;;;;;9.33;57.90;97127.41;5052533;28;20051;-68
2021/10/19 08:55:29;;;;;;;1.27;0.28;;;;;;;9.36;57.80;97115.91;5035131;28;20055;-66
2021/10/19 08:58:01;;;;;;;0.15;0.15;;;;;;;9.39;57.63;97121.69;5052469;28;20045;-67
2021/10/19 09:00:28;;;;;;;0.50;0.50;;;;;;;9.44;57.45;97118.13;5052327;28;20443;-66
2021/10/19 09:02:53;;;;;;;0.30;0.30;;;;;;;9.44;57.48;97126.34;5053195;28;20044;-66
2021/10/19 09:05:25;;;;;;;0.47;0.40;;;;;;;9.46;57.88;97124.16;5053113;28;20040;-67
2021/10/19 09:07:59;;;;;;;0.65;0.55;;;;;;;9.46;57.65;97114.00;5034896;28;20047;-66
2021/10/19 09:10:33;;;;;;;0.38;0.38;;;;;;;9.47;57.63;97120.34;5053187;28;20060;-67
2021/10/19 09:13:01;;;;;;;0.30;0.30;;;;;;;9.45;57.98;97109.66;5052488;28;20051;-66
2021/10/19 09:15:29;;;;;;;0.20;0.20;;;;;;;9.44;57.67;97113.47;5052923;28;20407;-67
2021/10/19 09:18:03;;;;;;;0.65;0.65;;;;;;;9.46;57.50;97122.22;5034499;28;20072;-66
2021/10/19 09:20:30;;;;;;;0.30;0.30;;;;;;;9.52;57.54;97103.09;5052013;28;20512;-65
2021/10/19 09:23:00;;;;;;;0.45;0.30;;;;;;;9.58;57.33;97119.25;5052492;28;20403;-65
2021/10/19 09:25:28;;;;;;;1.88;0.65;;;;;;;9.58;57.44;97108.28;5052453;28;20045;-65
2021/10/19 09:27:56;;;;;;;0.28;0.28;;;;;;;9.53;57.29;97111.03;5052088;28;20049;-66
2021/10/19 09:30:35;;;;;;;0.20;0.20;;;;;;;9.47;57.75;97104.72;5052186;28;20044;-65
2021/10/19 09:33:02;;;;;;;0.50;0.50;;;;;;;9.41;57.79;97102.25;5052138;28;20086;-65
2021/10/19 09:35:28;;;;;;;0.30;0.30;;;;;;;9.36;57.78;97104.94;5052326;28;20091;-71
2021/10/19 09:37:59;;;;;;;1.20;0.70;;;;;;;9.36;57.85;97100.28;5034337;28;20451;-67
2021/10/19 09:40:33;;;;;;;0.20;0.20;;;;;;;9.41;57.52;97102.25;5052087;28;20104;-68
2021/10/19 09:43:04;;;;;;;0.40;0.40;;;;;;;9.49;57.56;97095.41;5051942;28;20037;-67
2021/10/19 09:45:32;;;;;;;0.25;0.25;;;;;;;9.50;57.67;97094.31;5051832;28;20069;-65
2021/10/19 09:47:58;;;;;;;0.38;0.38;;;;;;;9.45;57.82;97104.16;5052148;28;20037;-64
2021/10/19 09:50:26;;;;;;;0.20;0.20;;;;;;;9.44;57.96;97101.69;5059744;28;20071;-67
2021/10/19 09:52:52;;;;;;;0.45;0.45;;;;;;;9.41;58.07;97114.00;5054159;28;20415;-65
2021/10/19 09:55:18;;;;;;;0.20;0.20;;;;;;;9.40;57.86;97103.31;5072114;28;20048;-66
2021/10/19 09:57:45;;;;;;;0.30;0.30;;;;;;;9.45;58.03;97097.84;5057495;28;20190;-67
2021/10/19 10:00:13;;;;;;;0.57;0.57;;;;;;;9.50;57.94;97091.59;5054192;28;20504;-66
2021/10/19 10:02:39;;;;;;;0.17;0.17;;;;;;;9.50;58.04;97097.06;5055128;28;20040;-67
2021/10/19 10:05:06;;;;;;;0.90;0.63;;;;;;;9.49;57.87;97089.94;5056383;28;20051;-67
2021/10/19 10:07:36;;;;;;;0.20;0.20;;;;;;;9.52;57.79;97094.88;5052002;28;20067;-66
2021/10/19 10:10:04;;;;;;;0.45;0.35;;;;;;;9.53;57.79;97094.59;5052711;28;20041;-68
2021/10/19 10:12:34;;;;;;;0.60;0.38;;;;;;;9.58;57.93;97096.53;5041770;28;20051;-67
2021/10/19 10:15:01;;;;;;;0.38;0.38;;;;;;;9.66;57.90;97096.00;5048762;28;20060;-67
2021/10/19 10:17:26;;;;;;;0.30;0.30;;;;;;;9.70;57.67;97097.09;5048763;28;20045;-67
2021/10/19 10:19:53;;;;;;;0.52;0.52;;;;;;;9.74;57.66;97103.66;5048916;28;20466;-67
2021/10/19 10:22:28;;;;;;;0.40;0.40;;;;;;;9.77;57.60;97100.38;5039221;28;20442;-66
2021/10/19 10:25:16;;;;;;;0.30;0.30;;;;;;;9.75;57.68;97091.63;5069352;28;20040;-66
2021/10/19 10:27:43;;;;;;;0.20;0.20;;;;;;;9.70;57.81;97102.59;5073429;28;20037;-66
2021/10/19 10:30:23;;;;;;;0.10;0.10;;;;;;;9.63;57.83;97111.06;5072402;28;20059;-67
2021/10/19 10:32:49;;;;;;;0.20;0.20;;;;;;;9.59;58.14;97109.94;5067731;28;20070;-67
2021/10/19 10:35:17;;;;;;;0.40;0.40;;;;;;;9.55;58.31;97102.53;5058437;28;20033;-70
2021/10/19 10:37:52;;;;;;;1.75;1.20;;;;;;;9.51;58.39;97121.44;5062853;28;20036;-66
2021/10/19 10:40:34;;;;;;;;;;;;;;;9.48;58.54;97124.69;5056413;28;20052;-69
2021/10/19 10:43:20;;;;;;;0.30;0.30;;;;;;;9.44;58.31;97121.69;5057717;28;19990;-66
2021/10/19 10:45:47;;;;;;;0.30;0.30;;;;;;;9.38;58.33;97130.16;5055114;28;20127;-66
2021/10/19 10:48:16;;;;;;;1.77;0.70;;;;;;;9.35;58.52;97125.22;5057344;28;20048;-67
2021/10/19 10:50:41;;;;;;;0.28;0.28;;;;;;;9.36;58.61;97138.63;5054048;28;20400;-66
2021/10/19 10:53:12;;;;;;;0.70;0.70;;;;;;;9.35;58.55;97130.69;5056681;28;20056;-66
2021/10/19 10:55:41;;;;;;;0.22;0.22;;;;;;;9.35;58.62;97128.78;5050869;28;20616;-66
2021/10/19 10:58:46;;;;;;;0.20;0.20;;;;;;;9.37;58.75;97123.84;5057491;28;20048;-67
2021/10/19 11:01:32;;;;;;;;;;;;;;;9.36;58.84;97130.41;5054005;28;20488;-67
2021/10/19 11:04:43;;;;;;;0.22;0.22;;;;;;;9.34;58.85;97137.28;5054416;28;20506;-67
2021/10/19 11:07:48;;;;;;;0.30;0.30;;;;;;;9.27;58.84;97143.00;5059178;28;20535;-67
2021/10/19 11:10:54;;;;;;;0.20;0.20;;;;;;;9.15;59.26;97131.44;5052203;28;20080;-67
2021/10/19 11:13:19;;;;;;;4.72;0.52;;;;;;;8.94;60.00;97154.06;5055510;28;20064;-68
2021/10/19 11:15:56;;;;;;;0.30;0.30;;;;;;;8.76;60.12;97158.06;5045300;28;20487;-68
2021/10/19 11:18:25;;;;;;;0.30;0.30;;;;;;;8.60;60.86;97170.00;5053803;28;20044;-66
2021/10/19 11:20:53;;;;;;;2.67;0.32;;;;;;;8.42;61.03;97158.34;5051467;28;20056;-68
2021/10/19 11:23:19;;;;;;;0.47;0.47;;;;;;;8.29;61.52;97172.44;5042258;28;20037;-64
2021/10/19 11:25:45;;;;;;;0.28;0.28;;;;;;;8.23;61.59;97163.38;5055725;28;20098;-65
2021/10/19 11:28:11;;;;;;;0.25;0.25;;;;;;;8.22;61.52;97175.38;5053979;28;20040;-67
2021/10/19 11:30:37;;;;;;;0.52;0.50;;;;;;;8.22;61.38;97183.59;5056171;28;20036;-66
2021/10/19 11:33:06;;;;;;;0.40;0.40;;;;;;;8.25;61.39;97174.84;5057127;28;20189;-67
2021/10/19 11:35:32;;;;;;;1.27;0.60;;;;;;;8.25;61.27;97180.34;5056150;28;20123;-67
2021/10/19 11:37:58;;;;;;;1.42;0.52;;;;;;;8.24;61.17;97186.06;5054303;28;20131;-65
2021/10/19 11:40:24;;;;;;;0.50;0.50;;;;;;;8.23;61.14;97187.16;5055994;28;20040;-67
2021/10/19 11:42:53;;;;;;;0.55;0.55;;;;;;;8.21;61.29;97178.38;5055683;28;20503;-65